شیراز, ایران

10:45 PM IRDT on ژوئیه 28, 2016 (GMT +0430)
Shahid Dastghaib International | | Change Station

Elev 4869 ft 29.54 °N, 52.59 °E | Updated 15 minutes ago

Scattered Clouds
ابرهای پراکنده
90 °F
Feels Like 87 °F
N
7
باد متغير باد from WNW

امروز
High -- | Low -- °F
--% Chance of Precip.
دیروز
High -- | Low -- °F
Precip. -- در
فشار 29.86 در
ديد 4.3 مايل، ميل (در برابر كيلومتر
ابری Few 3500 ft
ابرهای پراکنده 20000 ft
شاخص گرما 87 °F
قطره شبنم 54 °F
رطوبت 29%
بارش باران 0.00 در
برف عمیق Not available.
6:17 AM 7:54 PM
Waning Crescent, 30% visible
METAR OISS 281800Z 29006KT 7000 FEW035 SCT200 32/12 Q1011 A2986
فشار 29.86 در
ديد 4.3 مايل، ميل (در برابر كيلومتر
ابری Few 3500 ft
ابرهای پراکنده 20000 ft
شاخص گرما 87 °F
قطره شبنم 54 °F
رطوبت 29%
بارش باران 0.00 در
برف عمیق Not available.
6:17 AM 7:54 PM
Waning Crescent, 30% visible
METAR OISS 281800Z 29006KT 7000 FEW035 SCT200 32/12 Q1011 A2986

10-Day Weather Forecast

No radar image for this location.
×

Almanac

ستاره شناسی

Jul. 28, 2016 Rise Set
وقت حقیقی
تاریک و روشن اجتماعی
تاریک روشن دریایی
شفق و فلق نجومی
ماه
میزان روشنایی روز
طول روز
Tomorrow will be .
, % of the Moon is Illuminated

Today's Extremes

Country Highs Country Lows

Community

WunderPhotos

Upload Photos

1,928,174 photos uploaded!

WunderBlog® & News

Nearby

تمیزی هوا

  تمیزی هوا AQ Index آلاینده
Not available.

عمق برف

Station Depth Elevation

Earthquake Activity

شهر Distance Mag. Time & Date
Minimum magnitude displayed is 2.5.

Coastal Water Temperatures

منطقه درجه حرارت

Stations

Nearby Weather Stations

Station Location دما باد سرد قطره شبنم رطوبت باد Precip. Elev ارتقا دادن Type